sensor_id;sensor_type;location;lat;lon;timestamp;pressure;altitude;pressure_sealevel;temperature;humidity
28000;BME280;15328;50.860;10.562;2024-02-21T00:03:41;97067.56;;;7.77;59.69
28000;BME280;15328;50.860;10.562;2024-02-21T00:08:42;97067.19;;;7.65;59.82
28000;BME280;15328;50.860;10.562;2024-02-21T00:13:42;97069.94;;;7.57;60.49
28000;BME280;15328;50.860;10.562;2024-02-21T00:18:43;97047.28;;;7.54;59.87
28000;BME280;15328;50.860;10.562;2024-02-21T00:23:44;97039.63;;;7.59;60.18
28000;BME280;15328;50.860;10.562;2024-02-21T00:28:47;97032.69;;;7.58;60.13
28000;BME280;15328;50.860;10.562;2024-02-21T00:33:48;97026.41;;;7.44;60.23
28000;BME280;15328;50.860;10.562;2024-02-21T00:38:48;97020.09;;;7.46;60.34
28000;BME280;15328;50.860;10.562;2024-02-21T00:43:48;96986.72;;;7.15;60.94
28000;BME280;15328;50.860;10.562;2024-02-21T00:48:50;97009.97;;;7.05;61.45
28000;BME280;15328;50.860;10.562;2024-02-21T00:53:50;96996.56;;;7.06;62.00
28000;BME280;15328;50.860;10.562;2024-02-21T00:58:51;96979.84;;;7.06;62.18
28000;BME280;15328;50.860;10.562;2024-02-21T01:03:51;96996.91;;;7.03;62.37
28000;BME280;15328;50.860;10.562;2024-02-21T01:08:53;96990.81;;;7.03;62.83
28000;BME280;15328;50.860;10.562;2024-02-21T01:13:55;96987.72;;;6.99;63.04
28000;BME280;15328;50.860;10.562;2024-02-21T01:18:55;96986.81;;;6.92;63.82
28000;BME280;15328;50.860;10.562;2024-02-21T01:23:56;96970.91;;;7.07;64.47
28000;BME280;15328;50.860;10.562;2024-02-21T01:28:56;96971.00;;;6.99;64.47
28000;BME280;15328;50.860;10.562;2024-02-21T01:33:56;96968.75;;;6.96;64.79
28000;BME280;15328;50.860;10.562;2024-02-21T01:38:58;96957.06;;;6.90;65.56
28000;BME280;15328;50.860;10.562;2024-02-21T01:43:58;96946.50;;;6.90;65.18
28000;BME280;15328;50.860;10.562;2024-02-21T01:48:59;96943.03;;;6.90;65.34
28000;BME280;15328;50.860;10.562;2024-02-21T01:54:09;96946.56;;;6.82;65.73
28000;BME280;15328;50.860;10.562;2024-02-21T01:59:12;96977.88;;;6.93;65.44
28000;BME280;15328;50.860;10.562;2024-02-21T02:04:13;97001.75;;;7.00;65.14
28000;BME280;15328;50.860;10.562;2024-02-21T02:09:13;97011.16;;;7.17;65.69
28000;BME280;15328;50.860;10.562;2024-02-21T02:14:14;97008.31;;;7.33;65.51
28000;BME280;15328;50.860;10.562;2024-02-21T02:19:14;97006.50;;;7.49;64.86
28000;BME280;15328;50.860;10.562;2024-02-21T02:24:16;97011.50;;;7.58;62.94
28000;BME280;15328;50.860;10.562;2024-02-21T02:29:16;97005.84;;;7.61;63.62
28000;BME280;15328;50.860;10.562;2024-02-21T02:34:17;97003.28;;;7.68;63.62
28000;BME280;15328;50.860;10.562;2024-02-21T02:39:18;97002.97;;;7.78;63.38
28000;BME280;15328;50.860;10.562;2024-02-21T02:44:18;96999.00;;;7.88;62.85
28000;BME280;15328;50.860;10.562;2024-02-21T02:49:18;96994.97;;;7.92;62.66
28000;BME280;15328;50.860;10.562;2024-02-21T02:54:18;96978.53;;;7.97;61.97
28000;BME280;15328;50.860;10.562;2024-02-21T02:59:19;96965.09;;;7.98;62.42
28000;BME280;15328;50.860;10.562;2024-02-21T03:04:19;96953.38;;;8.07;61.72
28000;BME280;15328;50.860;10.562;2024-02-21T03:09:19;96947.97;;;7.94;62.39
28000;BME280;15328;50.860;10.562;2024-02-21T03:14:20;96936.78;;;7.99;62.57
28000;BME280;15328;50.860;10.562;2024-02-21T03:19:20;96932.56;;;8.04;62.52
28000;BME280;15328;50.860;10.562;2024-02-21T03:24:21;96925.47;;;8.12;62.58
28000;BME280;15328;50.860;10.562;2024-02-21T03:29:22;96922.81;;;8.12;62.60
28000;BME280;15328;50.860;10.562;2024-02-21T03:34:22;96911.47;;;8.18;62.09
28000;BME280;15328;50.860;10.562;2024-02-21T03:39:22;96895.16;;;8.21;62.00
28000;BME280;15328;50.860;10.562;2024-02-21T03:44:23;96879.22;;;8.14;61.52
28000;BME280;15328;50.860;10.562;2024-02-21T03:49:23;96859.41;;;8.10;62.06
28000;BME280;15328;50.860;10.562;2024-02-21T03:54:24;96855.31;;;8.07;62.01
28000;BME280;15328;50.860;10.562;2024-02-21T03:59:24;96836.16;;;8.05;62.13
28000;BME280;15328;50.860;10.562;2024-02-21T04:04:25;96837.13;;;7.98;62.37
28000;BME280;15328;50.860;10.562;2024-02-21T04:09:25;96849.94;;;7.94;62.48
28000;BME280;15328;50.860;10.562;2024-02-21T04:14:25;96852.81;;;7.99;63.05
28000;BME280;15328;50.860;10.562;2024-02-21T04:19:26;96838.56;;;8.00;62.88
28000;BME280;15328;50.860;10.562;2024-02-21T04:24:26;96845.75;;;8.06;62.37
28000;BME280;15328;50.860;10.562;2024-02-21T04:29:27;96829.22;;;8.04;62.64
28000;BME280;15328;50.860;10.562;2024-02-21T04:34:29;96843.03;;;8.00;62.35
28000;BME280;15328;50.860;10.562;2024-02-21T04:39:30;96838.19;;;8.03;62.46
28000;BME280;15328;50.860;10.562;2024-02-21T04:44:30;96831.88;;;8.04;62.91
28000;BME280;15328;50.860;10.562;2024-02-21T04:49:30;96839.88;;;8.11;62.62
28000;BME280;15328;50.860;10.562;2024-02-21T04:54:31;96837.00;;;8.13;62.56
28000;BME280;15328;50.860;10.562;2024-02-21T04:59:32;96851.78;;;8.22;62.60
28000;BME280;15328;50.860;10.562;2024-02-21T05:04:32;96826.66;;;8.18;62.87
28000;BME280;15328;50.860;10.562;2024-02-21T05:09:33;96832.03;;;8.24;62.57
28000;BME280;15328;50.860;10.562;2024-02-21T05:14:34;96825.31;;;8.28;62.71
28000;BME280;15328;50.860;10.562;2024-02-21T05:19:34;96830.69;;;8.35;62.35
28000;BME280;15328;50.860;10.562;2024-02-21T05:24:35;96831.53;;;8.42;61.79
28000;BME280;15328;50.860;10.562;2024-02-21T05:29:36;96822.97;;;8.40;61.94
28000;BME280;15328;50.860;10.562;2024-02-21T05:34:37;96802.38;;;8.42;61.70
28000;BME280;15328;50.860;10.562;2024-02-21T05:39:37;96808.50;;;8.43;61.38
28000;BME280;15328;50.860;10.562;2024-02-21T05:44:38;96801.47;;;8.28;61.94
28000;BME280;15328;50.860;10.562;2024-02-21T05:49:39;96795.97;;;8.30;62.17
28000;BME280;15328;50.860;10.562;2024-02-21T05:54:39;96788.22;;;8.28;61.98
28000;BME280;15328;50.860;10.562;2024-02-21T05:59:40;96802.91;;;8.31;62.14
28000;BME280;15328;50.860;10.562;2024-02-21T06:04:42;96787.25;;;8.36;61.51
28000;BME280;15328;50.860;10.562;2024-02-21T06:09:42;96797.13;;;8.21;61.46
28000;BME280;15328;50.860;10.562;2024-02-21T06:14:43;96793.28;;;7.95;62.56
28000;BME280;15328;50.860;10.562;2024-02-21T06:19:43;96799.72;;;7.86;63.11
28000;BME280;15328;50.860;10.562;2024-02-21T06:24:44;96793.59;;;7.86;63.63
28000;BME280;15328;50.860;10.562;2024-02-21T06:29:45;96775.41;;;7.76;64.52
28000;BME280;15328;50.860;10.562;2024-02-21T06:34:45;96767.78;;;7.66;65.06
28000;BME280;15328;50.860;10.562;2024-02-21T06:39:46;96773.97;;;7.52;65.90
28000;BME280;15328;50.860;10.562;2024-02-21T06:44:46;96796.59;;;7.55;66.21
28000;BME280;15328;50.860;10.562;2024-02-21T06:49:50;96802.56;;;7.63;66.13
28000;BME280;15328;50.860;10.562;2024-02-21T06:54:53;96792.25;;;7.68;66.33
28000;BME280;15328;50.860;10.562;2024-02-21T06:59:54;96790.72;;;7.81;66.34
28000;BME280;15328;50.860;10.562;2024-02-21T07:04:54;96774.75;;;7.95;66.13
28000;BME280;15328;50.860;10.562;2024-02-21T07:09:54;96781.97;;;8.08;65.50
28000;BME280;15328;50.860;10.562;2024-02-21T07:14:55;96782.56;;;8.10;65.22
28000;BME280;15328;50.860;10.562;2024-02-21T07:19:55;96785.06;;;8.18;65.26
28000;BME280;15328;50.860;10.562;2024-02-21T07:24:57;96801.66;;;8.27;64.91
28000;BME280;15328;50.860;10.562;2024-02-21T07:29:57;96816.63;;;8.34;65.04
28000;BME280;15328;50.860;10.562;2024-02-21T07:34:57;96819.06;;;8.36;64.69
28000;BME280;15328;50.860;10.562;2024-02-21T07:39:58;96831.31;;;8.37;64.39
28000;BME280;15328;50.860;10.562;2024-02-21T07:44:58;96832.94;;;8.38;64.37
28000;BME280;15328;50.860;10.562;2024-02-21T07:49:58;96828.78;;;8.29;64.19
28000;BME280;15328;50.860;10.562;2024-02-21T07:54:59;96815.34;;;8.30;64.50
28000;BME280;15328;50.860;10.562;2024-02-21T07:59:59;96815.59;;;8.35;63.91
28000;BME280;15328;50.860;10.562;2024-02-21T08:04:59;96803.50;;;8.26;64.51
28000;BME280;15328;50.860;10.562;2024-02-21T08:10:00;96797.59;;;8.31;65.28
28000;BME280;15328;50.860;10.562;2024-02-21T08:15:00;96799.94;;;8.41;65.26
28000;BME280;15328;50.860;10.562;2024-02-21T08:20:01;96786.50;;;8.49;65.58
28000;BME280;15328;50.860;10.562;2024-02-21T08:25:01;96775.66;;;8.37;65.32
28000;BME280;15328;50.860;10.562;2024-02-21T08:30:02;96789.75;;;8.44;65.54
28000;BME280;15328;50.860;10.562;2024-02-21T08:35:03;96770.84;;;8.54;65.76
28000;BME280;15328;50.860;10.562;2024-02-21T08:40:03;96782.69;;;8.58;65.59
28000;BME280;15328;50.860;10.562;2024-02-21T08:45:08;96779.88;;;8.66;64.99
28000;BME280;15328;50.860;10.562;2024-02-21T08:50:09;96772.28;;;8.56;65.14
28000;BME280;15328;50.860;10.562;2024-02-21T08:55:10;96760.00;;;8.49;65.10
28000;BME280;15328;50.860;10.562;2024-02-21T09:00:11;96760.97;;;8.41;64.93
28000;BME280;15328;50.860;10.562;2024-02-21T09:05:13;96757.09;;;8.37;64.12
28000;BME280;15328;50.860;10.562;2024-02-21T09:10:13;96735.06;;;8.36;65.60
28000;BME280;15328;50.860;10.562;2024-02-21T09:15:13;96724.88;;;8.40;65.05
28000;BME280;15328;50.860;10.562;2024-02-21T09:20:14;96709.13;;;8.32;65.61
28000;BME280;15328;50.860;10.562;2024-02-21T09:25:16;96704.06;;;8.37;65.58
28000;BME280;15328;50.860;10.562;2024-02-21T09:30:17;96716.31;;;8.38;65.44
28000;BME280;15328;50.860;10.562;2024-02-21T09:35:17;96715.63;;;8.29;66.01
28000;BME280;15328;50.860;10.562;2024-02-21T09:40:18;96690.63;;;8.45;66.41
28000;BME280;15328;50.860;10.562;2024-02-21T09:45:24;96687.88;;;8.66;66.42
28000;BME280;15328;50.860;10.562;2024-02-21T09:50:26;96686.28;;;8.79;65.75
28000;BME280;15328;50.860;10.562;2024-02-21T09:55:27;96674.91;;;9.11;65.84
28000;BME280;15328;50.860;10.562;2024-02-21T10:00:29;96680.44;;;9.43;62.65
28000;BME280;15328;50.860;10.562;2024-02-21T10:05:30;96677.31;;;10.70;60.84
28000;BME280;15328;50.860;10.562;2024-02-21T10:10:41;96677.31;;;12.44;57.49
28000;BME280;15328;50.860;10.562;2024-02-21T10:15:42;96677.41;;;14.16;51.65
28000;BME280;15328;50.860;10.562;2024-02-21T10:20:42;96682.50;;;15.55;43.72
28000;BME280;15328;50.860;10.562;2024-02-21T10:25:44;96680.59;;;16.39;41.05
28000;BME280;15328;50.860;10.562;2024-02-21T10:30:52;96674.09;;;16.35;41.73
28000;BME280;15328;50.860;10.562;2024-02-21T10:35:53;96673.91;;;16.20;40.29
28000;BME280;15328;50.860;10.562;2024-02-21T10:40:53;96685.75;;;16.24;36.55
28000;BME280;15328;50.860;10.562;2024-02-21T10:46:00;96673.59;;;16.16;37.59
28000;BME280;15328;50.860;10.562;2024-02-21T10:51:17;96665.06;;;16.02;36.53
28000;BME280;15328;50.860;10.562;2024-02-21T10:56:28;96647.75;;;15.93;39.15
28000;BME280;15328;50.860;10.562;2024-02-21T11:01:29;96636.00;;;16.16;39.24
28000;BME280;15328;50.860;10.562;2024-02-21T11:06:32;96621.09;;;16.47;38.38
28000;BME280;15328;50.860;10.562;2024-02-21T11:11:38;96613.22;;;16.84;36.96
28000;BME280;15328;50.860;10.562;2024-02-21T11:16:40;96604.56;;;17.04;35.21
28000;BME280;15328;50.860;10.562;2024-02-21T11:21:41;96596.59;;;16.87;35.33
28000;BME280;15328;50.860;10.562;2024-02-21T11:26:42;96599.75;;;16.79;35.56
28000;BME280;15328;50.860;10.562;2024-02-21T11:31:44;96579.31;;;16.34;36.34
28000;BME280;15328;50.860;10.562;2024-02-21T11:36:49;96587.88;;;16.10;36.89
28000;BME280;15328;50.860;10.562;2024-02-21T11:42:06;96575.09;;;15.95;37.85
28000;BME280;15328;50.860;10.562;2024-02-21T11:47:08;96556.94;;;15.63;38.29
28000;BME280;15328;50.860;10.562;2024-02-21T11:52:08;96546.78;;;15.65;37.68
28000;BME280;15328;50.860;10.562;2024-02-21T11:57:09;96542.75;;;15.85;37.37
28000;BME280;15328;50.860;10.562;2024-02-21T12:02:10;96527.47;;;15.85;38.19
28000;BME280;15328;50.860;10.562;2024-02-21T12:07:10;96530.19;;;15.68;36.02
28000;BME280;15328;50.860;10.562;2024-02-21T12:12:11;96508.19;;;15.50;37.20
28000;BME280;15328;50.860;10.562;2024-02-21T12:17:12;96499.84;;;15.29;36.63
28000;BME280;15328;50.860;10.562;2024-02-21T12:22:18;96488.16;;;15.35;37.94
28000;BME280;15328;50.860;10.562;2024-02-21T12:27:19;96479.75;;;15.65;38.05
28000;BME280;15328;50.860;10.562;2024-02-21T12:32:20;96485.81;;;15.99;36.60
28000;BME280;15328;50.860;10.562;2024-02-21T12:37:22;96452.81;;;15.99;37.21
28000;BME280;15328;50.860;10.562;2024-02-21T12:42:25;96453.81;;;15.93;36.67
28000;BME280;15328;50.860;10.562;2024-02-21T12:47:26;96432.09;;;15.72;37.41
28000;BME280;15328;50.860;10.562;2024-02-21T12:52:26;96421.22;;;15.84;37.83
28000;BME280;15328;50.860;10.562;2024-02-21T12:57:27;96410.50;;;15.84;36.25
28000;BME280;15328;50.860;10.562;2024-02-21T13:02:27;96407.38;;;15.49;36.08
28000;BME280;15328;50.860;10.562;2024-02-21T13:07:28;96403.31;;;15.24;37.35
28000;BME280;15328;50.860;10.562;2024-02-21T13:12:29;96399.50;;;15.20;38.14
28000;BME280;15328;50.860;10.562;2024-02-21T13:17:30;96389.97;;;15.29;38.49
28000;BME280;15328;50.860;10.562;2024-02-21T13:22:41;96392.91;;;15.28;38.14
28000;BME280;15328;50.860;10.562;2024-02-21T13:27:44;96383.06;;;15.11;38.58
28000;BME280;15328;50.860;10.562;2024-02-21T13:32:45;96393.53;;;15.13;38.63
28000;BME280;15328;50.860;10.562;2024-02-21T13:37:48;96385.75;;;14.95;38.03
28000;BME280;15328;50.860;10.562;2024-02-21T13:42:50;96380.75;;;14.81;38.99
28000;BME280;15328;50.860;10.562;2024-02-21T13:47:51;96373.84;;;14.35;38.37
28000;BME280;15328;50.860;10.562;2024-02-21T13:52:54;96392.66;;;13.95;39.98
28000;BME280;15328;50.860;10.562;2024-02-21T13:57:55;96366.31;;;13.58;40.04
28000;BME280;15328;50.860;10.562;2024-02-21T14:02:55;96352.69;;;13.32;41.39
28000;BME280;15328;50.860;10.562;2024-02-21T14:07:58;96337.75;;;13.19;40.30
28000;BME280;15328;50.860;10.562;2024-02-21T14:12:58;96323.84;;;12.93;40.85
28000;BME280;15328;50.860;10.562;2024-02-21T14:17:59;96310.06;;;12.73;42.02
28000;BME280;15328;50.860;10.562;2024-02-21T14:22:59;96293.94;;;12.56;41.77
28000;BME280;15328;50.860;10.562;2024-02-21T14:27:59;96300.00;;;12.40;41.87
28000;BME280;15328;50.860;10.562;2024-02-21T14:33:02;96288.03;;;12.07;43.09
28000;BME280;15328;50.860;10.562;2024-02-21T14:38:03;96272.94;;;11.78;44.02
28000;BME280;15328;50.860;10.562;2024-02-21T14:43:03;96252.34;;;11.67;44.33
28000;BME280;15328;50.860;10.562;2024-02-21T14:48:04;96235.25;;;11.44;44.88
28000;BME280;15328;50.860;10.562;2024-02-21T14:53:04;96220.22;;;11.08;45.38
28000;BME280;15328;50.860;10.562;2024-02-21T14:58:06;96223.00;;;10.65;46.11
28000;BME280;15328;50.860;10.562;2024-02-21T15:03:07;96227.09;;;10.49;47.19
28000;BME280;15328;50.860;10.562;2024-02-21T15:08:07;96212.47;;;10.22;47.78
28000;BME280;15328;50.860;10.562;2024-02-21T15:13:10;96200.31;;;10.08;49.61
28000;BME280;15328;50.860;10.562;2024-02-21T15:18:10;96195.03;;;9.83;50.25
28000;BME280;15328;50.860;10.562;2024-02-21T15:23:11;96185.06;;;9.53;51.52
28000;BME280;15328;50.860;10.562;2024-02-21T15:28:11;96158.84;;;9.64;52.09
28000;BME280;15328;50.860;10.562;2024-02-21T15:33:12;96159.53;;;9.77;51.80
28000;BME280;15328;50.860;10.562;2024-02-21T15:38:13;96145.44;;;9.77;51.27
28000;BME280;15328;50.860;10.562;2024-02-21T15:43:13;96149.63;;;9.84;51.38
28000;BME280;15328;50.860;10.562;2024-02-21T15:48:14;96140.47;;;9.62;51.72
28000;BME280;15328;50.860;10.562;2024-02-21T15:53:14;96123.94;;;9.60;52.35
28000;BME280;15328;50.860;10.562;2024-02-21T15:58:15;96104.03;;;9.69;52.37
28000;BME280;15328;50.860;10.562;2024-02-21T16:03:19;96086.69;;;9.67;52.35
28000;BME280;15328;50.860;10.562;2024-02-21T16:08:19;96088.09;;;9.69;52.54
28000;BME280;15328;50.860;10.562;2024-02-21T16:13:20;96081.13;;;9.50;52.91
28000;BME280;15328;50.860;10.562;2024-02-21T16:18:21;96088.47;;;9.29;53.35
28000;BME280;15328;50.860;10.562;2024-02-21T16:23:23;96076.56;;;9.14;54.44
28000;BME280;15328;50.860;10.562;2024-02-21T16:28:24;96065.44;;;9.05;55.21
28000;BME280;15328;50.860;10.562;2024-02-21T16:33:25;96061.69;;;9.13;56.17
28000;BME280;15328;50.860;10.562;2024-02-21T16:38:25;96053.94;;;9.11;55.85
28000;BME280;15328;50.860;10.562;2024-02-21T16:43:26;96040.84;;;8.91;57.10
28000;BME280;15328;50.860;10.562;2024-02-21T16:48:27;96018.47;;;8.81;57.54
28000;BME280;15328;50.860;10.562;2024-02-21T16:53:27;96010.31;;;8.82;57.74
28000;BME280;15328;50.860;10.562;2024-02-21T16:58:28;96015.63;;;8.82;57.90
28000;BME280;15328;50.860;10.562;2024-02-21T17:03:30;96024.25;;;8.71;57.96
28000;BME280;15328;50.860;10.562;2024-02-21T17:08:31;96026.47;;;8.74;58.62
28000;BME280;15328;50.860;10.562;2024-02-21T17:13:31;96022.03;;;8.68;58.74
28000;BME280;15328;50.860;10.562;2024-02-21T17:18:32;96011.31;;;8.56;59.28
28000;BME280;15328;50.860;10.562;2024-02-21T17:23:33;96002.63;;;8.49;59.32
28000;BME280;15328;50.860;10.562;2024-02-21T17:28:33;96003.59;;;8.55;59.60
28000;BME280;15328;50.860;10.562;2024-02-21T17:33:34;95990.22;;;8.68;59.63
28000;BME280;15328;50.860;10.562;2024-02-21T17:38:34;96009.94;;;8.79;58.50
28000;BME280;15328;50.860;10.562;2024-02-21T17:43:35;96017.47;;;8.75;58.84
28000;BME280;15328;50.860;10.562;2024-02-21T17:48:38;95990.88;;;8.63;59.46
28000;BME280;15328;50.860;10.562;2024-02-21T17:53:39;95986.44;;;8.57;59.51
28000;BME280;15328;50.860;10.562;2024-02-21T17:58:39;95993.94;;;8.60;58.66
28000;BME280;15328;50.860;10.562;2024-02-21T18:03:39;95988.34;;;8.50;59.06
28000;BME280;15328;50.860;10.562;2024-02-21T18:08:40;95990.84;;;8.39;59.66
28000;BME280;15328;50.860;10.562;2024-02-21T18:13:40;95966.41;;;8.36;59.72
28000;BME280;15328;50.860;10.562;2024-02-21T18:18:41;95958.00;;;8.40;58.96
28000;BME280;15328;50.860;10.562;2024-02-21T18:23:44;95953.47;;;8.47;58.49
28000;BME280;15328;50.860;10.562;2024-02-21T18:28:46;95956.75;;;8.42;58.26
28000;BME280;15328;50.860;10.562;2024-02-21T18:33:46;95956.59;;;8.37;58.04
28000;BME280;15328;50.860;10.562;2024-02-21T18:38:46;95967.66;;;8.27;57.81
28000;BME280;15328;50.860;10.562;2024-02-21T18:43:47;95938.28;;;8.29;58.55
28000;BME280;15328;50.860;10.562;2024-02-21T18:48:47;95948.66;;;8.37;58.17
28000;BME280;15328;50.860;10.562;2024-02-21T18:53:47;95949.69;;;8.61;57.41
28000;BME280;15328;50.860;10.562;2024-02-21T18:58:48;95941.81;;;8.73;56.27
28000;BME280;15328;50.860;10.562;2024-02-21T19:03:48;95928.53;;;8.79;55.20
28000;BME280;15328;50.860;10.562;2024-02-21T19:08:48;95920.56;;;8.79;54.46
28000;BME280;15328;50.860;10.562;2024-02-21T19:13:51;95916.59;;;8.88;53.54
28000;BME280;15328;50.860;10.562;2024-02-21T19:18:51;95921.69;;;8.90;53.65
28000;BME280;15328;50.860;10.562;2024-02-21T19:23:51;95916.38;;;8.90;53.42
28000;BME280;15328;50.860;10.562;2024-02-21T19:28:52;95918.16;;;8.96;52.04
28000;BME280;15328;50.860;10.562;2024-02-21T19:33:53;95907.53;;;8.96;52.05
28000;BME280;15328;50.860;10.562;2024-02-21T19:38:57;95882.47;;;8.92;52.29
28000;BME280;15328;50.860;10.562;2024-02-21T19:43:57;95876.50;;;8.96;51.18
28000;BME280;15328;50.860;10.562;2024-02-21T19:48:58;95863.03;;;8.98;51.43
28000;BME280;15328;50.860;10.562;2024-02-21T19:53:58;95854.19;;;9.04;50.31
28000;BME280;15328;50.860;10.562;2024-02-21T19:58:58;95828.84;;;9.08;49.46
28000;BME280;15328;50.860;10.562;2024-02-21T20:04:01;95816.59;;;9.07;49.46
28000;BME280;15328;50.860;10.562;2024-02-21T20:09:04;95806.34;;;9.11;49.56
28000;BME280;15328;50.860;10.562;2024-02-21T20:14:08;95794.72;;;9.12;48.85
28000;BME280;15328;50.860;10.562;2024-02-21T20:19:08;95779.69;;;9.06;49.02
28000;BME280;15328;50.860;10.562;2024-02-21T20:24:13;95765.63;;;9.05;48.89
28000;BME280;15328;50.860;10.562;2024-02-21T20:29:13;95743.13;;;9.08;48.79
28000;BME280;15328;50.860;10.562;2024-02-21T20:34:16;95732.66;;;9.13;49.08
28000;BME280;15328;50.860;10.562;2024-02-21T20:39:16;95734.97;;;9.21;48.64
28000;BME280;15328;50.860;10.562;2024-02-21T20:44:18;95734.38;;;9.19;47.90
28000;BME280;15328;50.860;10.562;2024-02-21T20:49:19;95729.09;;;9.19;48.54
28000;BME280;15328;50.860;10.562;2024-02-21T20:54:19;95715.72;;;9.25;47.46
28000;BME280;15328;50.860;10.562;2024-02-21T20:59:20;95712.25;;;9.25;47.99
28000;BME280;15328;50.860;10.562;2024-02-21T21:04:20;95701.19;;;9.28;47.10
28000;BME280;15328;50.860;10.562;2024-02-21T21:09:21;95698.19;;;9.24;47.56
28000;BME280;15328;50.860;10.562;2024-02-21T21:14:21;95671.53;;;9.31;47.79
28000;BME280;15328;50.860;10.562;2024-02-21T21:19:21;95670.63;;;9.37;48.04
28000;BME280;15328;50.860;10.562;2024-02-21T21:24:22;95641.56;;;9.42;48.19
28000;BME280;15328;50.860;10.562;2024-02-21T21:29:22;95637.88;;;9.43;46.61
28000;BME280;15328;50.860;10.562;2024-02-21T21:34:22;95620.09;;;9.44;47.08
28000;BME280;15328;50.860;10.562;2024-02-21T21:39:23;95622.63;;;9.50;45.16
28000;BME280;15328;50.860;10.562;2024-02-21T21:44:23;95607.97;;;9.48;46.09
28000;BME280;15328;50.860;10.562;2024-02-21T21:49:23;95603.69;;;9.47;46.81
28000;BME280;15328;50.860;10.562;2024-02-21T21:54:24;95589.16;;;9.49;47.58
28000;BME280;15328;50.860;10.562;2024-02-21T21:59:24;95565.25;;;9.49;46.30
28000;BME280;15328;50.860;10.562;2024-02-21T22:04:25;95579.00;;;9.46;47.31
28000;BME280;15328;50.860;10.562;2024-02-21T22:09:25;95555.56;;;9.20;48.87
28000;BME280;15328;50.860;10.562;2024-02-21T22:14:28;95552.44;;;9.11;50.31
28000;BME280;15328;50.860;10.562;2024-02-21T22:19:29;95537.31;;;9.00;51.56
28000;BME280;15328;50.860;10.562;2024-02-21T22:24:30;95521.28;;;8.95;51.74
28000;BME280;15328;50.860;10.562;2024-02-21T22:29:31;95512.88;;;8.98;52.66
28000;BME280;15328;50.860;10.562;2024-02-21T22:34:32;95517.25;;;8.92;52.83
28000;BME280;15328;50.860;10.562;2024-02-21T22:39:33;95489.09;;;8.80;52.85
28000;BME280;15328;50.860;10.562;2024-02-21T22:44:33;95477.44;;;8.69;54.37
28000;BME280;15328;50.860;10.562;2024-02-21T22:49:35;95452.75;;;8.68;54.50
28000;BME280;15328;50.860;10.562;2024-02-21T22:54:35;95448.97;;;8.64;55.07
28000;BME280;15328;50.860;10.562;2024-02-21T22:59:36;95426.59;;;8.60;55.52
28000;BME280;15328;50.860;10.562;2024-02-21T23:04:36;95430.06;;;8.49;56.43
28000;BME280;15328;50.860;10.562;2024-02-21T23:09:36;95415.97;;;8.49;56.54
28000;BME280;15328;50.860;10.562;2024-02-21T23:14:37;95401.75;;;8.31;57.81
28000;BME280;15328;50.860;10.562;2024-02-21T23:19:37;95382.06;;;8.27;58.35
28000;BME280;15328;50.860;10.562;2024-02-21T23:24:37;95373.19;;;8.22;58.78
28000;BME280;15328;50.860;10.562;2024-02-21T23:29:38;95347.25;;;8.12;59.55
28000;BME280;15328;50.860;10.562;2024-02-21T23:34:38;95349.19;;;8.17;59.95
28000;BME280;15328;50.860;10.562;2024-02-21T23:39:39;95316.50;;;8.11;60.33
28000;BME280;15328;50.860;10.562;2024-02-21T23:44:41;95320.63;;;8.19;60.98
28000;BME280;15328;50.860;10.562;2024-02-21T23:49:41;95313.88;;;8.23;60.51
28000;BME280;15328;50.860;10.562;2024-02-21T23:54:41;95306.47;;;8.01;62.08
28000;BME280;15328;50.860;10.562;2024-02-21T23:59:42;95318.09;;;8.00;63.31
